Suttons Bay, Michigan
Current Conditions -  °F | °C
As of 5:53 PM on Wednesday 22 Oct 2014 (Local Time) from KTVC Reporting Station
Clear Clear  
Wind Chill: 45°   Ceiling: Unl
Heat Index: 47°   Visibility: 10mi
Dew Point: 34°   Wind: 5mph
Humidity: 61%   Direction: 40°NE
Pressure: 30.3"   Gusts: NA
Location:  44.98°N, 85.65°W
Report Text: KTVC 222153Z 04004KT 10SM CLR 08/01 A3030 RMK AO2 SLP268 T00830011 $
Loading
Personal Weather Stations






























Interactive Weather Map
Tropical Storm Tracking
New forecast layout! Learn more

10-Day Weather Forecast

Advertisements
Track Severe Weather on mobile